Capitol Logistics 458


KTPA
Tampa International Airport
Tampa, Florida, US
KRFD
Chicago/Rockford International Airport
Rockford, Illinois, US

Activity Log

Date Flight Route Aircraft Duration
10/16/2019 CPX458 ENDED8 LACEN BRUTS Q118 ATL BWG SPI BDF QUOTE B738 2h 43m
09/12/2019 CPX458 ENDED8 LACEN BRUTS Q118 ATL BWG SPI BDF QUOTE B738 2h 31m
07/18/2019 CPX458 ENDED8 LACEN BRUTS Q118 ATL BWG SPI BDF QUOTE B738 2h 35m
06/28/2019 CPX458 ENDED8 LACEN BRUTS Q118 ATL J45 BNA J73 PXV BDF QUOTE B738 2h 20m

Route Details

Aircraft Information
Primary: Boeing 737-800BCF
Backup: Not Available
Route Data
Distance: 913nm
Sched. Duration: 2h 16m
Avg. Duration: 2h 32m (+17m)
Times Flown: 4
Recm'd Route: ENDED8 LACEN BRUTS Q118 ATL BWG SPI BDF QUOTE
Planned Altitude: 36,000ft
Origin Wx: KTPA 281153Z 02004KT 10SM BKN047 08/01 A3026 RMK AO2 SLP247 T00830006 10089 20072 53009
Dest. Wx: KRFD 281154Z 30006KT 10SM BKN060 OVC075 M07/M12 A3005 RMK AO2 SLP189 T10671117 11067 21072 55001
Notes:

Financial History
Total Freight: 111,937lbs
Average Load: 27,984lbs/flt
Fuel Used: 53,187lbs
Avg. Fuel Used: 13,297lbs/flt
Fuel Expense: $53,719
Avg. Fuel Expense: $13,430
Avg. Fuel Cost: $1.01/lbs
Total Gross Income: $144,399
Pilot Pay: $836
Total Expenses: $15,803
Total Revenue: $72,683
Average Revenue: $36,099.68